sensor_id;sensor_type;location;lat;lon;timestamp;P1;durP1;ratioP1;P2;durP2;ratioP2
10277;SDS011;5184;51.376;7.148;2022-08-19T00:00:21;11.77;;;10.83;;
10277;SDS011;5184;51.376;7.148;2022-08-19T00:02:47;12.40;;;11.20;;
10277;SDS011;5184;51.376;7.148;2022-08-19T00:05:14;12.77;;;11.57;;
10277;SDS011;5184;51.376;7.148;2022-08-19T00:07:41;12.43;;;11.37;;
10277;SDS011;5184;51.376;7.148;2022-08-19T00:10:08;13.40;;;12.10;;
10277;SDS011;5184;51.376;7.148;2022-08-19T00:12:35;12.10;;;11.00;;
10277;SDS011;5184;51.376;7.148;2022-08-19T00:15:02;11.63;;;10.63;;
10277;SDS011;5184;51.376;7.148;2022-08-19T00:17:30;12.30;;;11.30;;
10277;SDS011;5184;51.376;7.148;2022-08-19T00:19:57;12.10;;;11.10;;
10277;SDS011;5184;51.376;7.148;2022-08-19T00:22:24;12.00;;;11.00;;
10277;SDS011;5184;51.376;7.148;2022-08-19T00:24:50;12.07;;;11.07;;
10277;SDS011;5184;51.376;7.148;2022-08-19T00:27:17;13.53;;;12.23;;
10277;SDS011;5184;51.376;7.148;2022-08-19T00:29:44;12.67;;;11.57;;
10277;SDS011;5184;51.376;7.148;2022-08-19T00:32:12;12.27;;;11.17;;
10277;SDS011;5184;51.376;7.148;2022-08-19T00:34:38;12.20;;;11.03;;
10277;SDS011;5184;51.376;7.148;2022-08-19T00:37:05;11.83;;;10.73;;
10277;SDS011;5184;51.376;7.148;2022-08-19T00:39:31;12.77;;;11.57;;
10277;SDS011;5184;51.376;7.148;2022-08-19T00:41:59;12.87;;;11.77;;
10277;SDS011;5184;51.376;7.148;2022-08-19T00:44:27;12.77;;;11.67;;
10277;SDS011;5184;51.376;7.148;2022-08-19T00:46:54;12.43;;;11.13;;
10277;SDS011;5184;51.376;7.148;2022-08-19T00:49:23;13.47;;;11.97;;
10277;SDS011;5184;51.376;7.148;2022-08-19T00:51:50;13.83;;;12.50;;
10277;SDS011;5184;51.376;7.148;2022-08-19T00:54:15;13.43;;;11.93;;
10277;SDS011;5184;51.376;7.148;2022-08-19T00:56:42;12.53;;;11.33;;
10277;SDS011;5184;51.376;7.148;2022-08-19T00:59:09;12.33;;;11.20;;
10277;SDS011;5184;51.376;7.148;2022-08-19T01:01:37;10.97;;;9.87;;
10277;SDS011;5184;51.376;7.148;2022-08-19T01:04:05;11.60;;;10.60;;
10277;SDS011;5184;51.376;7.148;2022-08-19T01:06:32;11.83;;;10.83;;
10277;SDS011;5184;51.376;7.148;2022-08-19T01:08:59;11.83;;;10.73;;
10277;SDS011;5184;51.376;7.148;2022-08-19T01:11:26;11.27;;;10.27;;
10277;SDS011;5184;51.376;7.148;2022-08-19T01:13:52;11.70;;;10.60;;
10277;SDS011;5184;51.376;7.148;2022-08-19T01:16:20;11.63;;;10.63;;
10277;SDS011;5184;51.376;7.148;2022-08-19T01:18:47;11.30;;;9.97;;
10277;SDS011;5184;51.376;7.148;2022-08-19T01:21:32;11.47;;;10.47;;
10277;SDS011;5184;51.376;7.148;2022-08-19T01:23:57;11.97;;;10.73;;
10277;SDS011;5184;51.376;7.148;2022-08-19T01:26:24;12.03;;;10.93;;
10277;SDS011;5184;51.376;7.148;2022-08-19T01:28:52;13.07;;;11.87;;
10277;SDS011;5184;51.376;7.148;2022-08-19T01:31:19;12.03;;;10.90;;
10277;SDS011;5184;51.376;7.148;2022-08-19T01:33:44;11.93;;;10.83;;
10277;SDS011;5184;51.376;7.148;2022-08-19T01:36:12;13.67;;;12.40;;
10277;SDS011;5184;51.376;7.148;2022-08-19T01:38:38;13.80;;;12.60;;
10277;SDS011;5184;51.376;7.148;2022-08-19T01:41:04;12.27;;;11.17;;
10277;SDS011;5184;51.376;7.148;2022-08-19T01:43:31;12.60;;;11.47;;
10277;SDS011;5184;51.376;7.148;2022-08-19T01:45:57;12.60;;;11.50;;
10277;SDS011;5184;51.376;7.148;2022-08-19T01:48:25;12.57;;;11.37;;
10277;SDS011;5184;51.376;7.148;2022-08-19T01:50:51;11.60;;;10.47;;
10277;SDS011;5184;51.376;7.148;2022-08-19T01:53:18;12.57;;;11.50;;
10277;SDS011;5184;51.376;7.148;2022-08-19T01:55:44;12.53;;;11.43;;
10277;SDS011;5184;51.376;7.148;2022-08-19T01:58:13;13.40;;;12.20;;
10277;SDS011;5184;51.376;7.148;2022-08-19T02:00:39;12.70;;;11.57;;
10277;SDS011;5184;51.376;7.148;2022-08-19T02:03:06;11.93;;;10.83;;
10277;SDS011;5184;51.376;7.148;2022-08-19T02:05:32;12.57;;;11.37;;
10277;SDS011;5184;51.376;7.148;2022-08-19T02:07:59;12.80;;;11.60;;
10277;SDS011;5184;51.376;7.148;2022-08-19T02:10:25;15.23;;;10.83;;
10277;SDS011;5184;51.376;7.148;2022-08-19T02:12:52;12.90;;;11.60;;
10277;SDS011;5184;51.376;7.148;2022-08-19T02:15:19;13.50;;;12.23;;
10277;SDS011;5184;51.376;7.148;2022-08-19T02:17:45;13.17;;;12.00;;
10277;SDS011;5184;51.376;7.148;2022-08-19T02:20:12;13.83;;;11.93;;
10277;SDS011;5184;51.376;7.148;2022-08-19T02:22:40;13.80;;;12.40;;
10277;SDS011;5184;51.376;7.148;2022-08-19T02:25:07;13.13;;;12.03;;
10277;SDS011;5184;51.376;7.148;2022-08-19T02:27:34;12.53;;;11.33;;
10277;SDS011;5184;51.376;7.148;2022-08-19T02:30:00;12.47;;;11.37;;
10277;SDS011;5184;51.376;7.148;2022-08-19T02:32:28;11.03;;;10.03;;
10277;SDS011;5184;51.376;7.148;2022-08-19T02:34:54;13.00;;;11.73;;
10277;SDS011;5184;51.376;7.148;2022-08-19T02:37:21;12.90;;;11.60;;
10277;SDS011;5184;51.376;7.148;2022-08-19T02:39:53;12.50;;;11.30;;
10277;SDS011;5184;51.376;7.148;2022-08-19T02:42:20;13.13;;;11.93;;
10277;SDS011;5184;51.376;7.148;2022-08-19T02:44:47;11.87;;;10.77;;
10277;SDS011;5184;51.376;7.148;2022-08-19T02:47:13;12.07;;;10.87;;
10277;SDS011;5184;51.376;7.148;2022-08-19T02:49:40;12.40;;;11.33;;
10277;SDS011;5184;51.376;7.148;2022-08-19T02:52:07;13.57;;;12.37;;
10277;SDS011;5184;51.376;7.148;2022-08-19T02:54:33;12.67;;;11.57;;
10277;SDS011;5184;51.376;7.148;2022-08-19T02:57:01;13.17;;;11.77;;
10277;SDS011;5184;51.376;7.148;2022-08-19T02:59:29;13.00;;;11.80;;
10277;SDS011;5184;51.376;7.148;2022-08-19T03:01:54;13.03;;;11.83;;
10277;SDS011;5184;51.376;7.148;2022-08-19T03:04:20;12.97;;;11.63;;
10277;SDS011;5184;51.376;7.148;2022-08-19T03:06:48;11.60;;;10.50;;
10277;SDS011;5184;51.376;7.148;2022-08-19T03:09:15;12.70;;;11.60;;
10277;SDS011;5184;51.376;7.148;2022-08-19T03:11:41;11.33;;;10.17;;
10277;SDS011;5184;51.376;7.148;2022-08-19T03:14:08;12.80;;;11.60;;
10277;SDS011;5184;51.376;7.148;2022-08-19T03:16:40;12.33;;;11.23;;
10277;SDS011;5184;51.376;7.148;2022-08-19T03:19:02;12.20;;;11.10;;
10277;SDS011;5184;51.376;7.148;2022-08-19T03:21:30;12.13;;;10.93;;
10277;SDS011;5184;51.376;7.148;2022-08-19T03:23:56;13.10;;;11.87;;
10277;SDS011;5184;51.376;7.148;2022-08-19T03:26:22;12.50;;;11.40;;
10277;SDS011;5184;51.376;7.148;2022-08-19T03:28:49;13.33;;;11.93;;
10277;SDS011;5184;51.376;7.148;2022-08-19T03:31:17;12.70;;;11.50;;
10277;SDS011;5184;51.376;7.148;2022-08-19T03:33:42;13.17;;;11.83;;
10277;SDS011;5184;51.376;7.148;2022-08-19T03:36:14;13.43;;;12.10;;
10277;SDS011;5184;51.376;7.148;2022-08-19T03:38:41;13.13;;;11.90;;
10277;SDS011;5184;51.376;7.148;2022-08-19T03:41:07;12.87;;;11.57;;
10277;SDS011;5184;51.376;7.148;2022-08-19T03:43:35;12.83;;;11.47;;
10277;SDS011;5184;51.376;7.148;2022-08-19T03:46:04;12.77;;;11.63;;
10277;SDS011;5184;51.376;7.148;2022-08-19T03:48:31;13.93;;;12.10;;
10277;SDS011;5184;51.376;7.148;2022-08-19T03:50:57;14.47;;;13.20;;
10277;SDS011;5184;51.376;7.148;2022-08-19T03:53:23;13.43;;;12.03;;
10277;SDS011;5184;51.376;7.148;2022-08-19T03:55:50;15.00;;;13.57;;
10277;SDS011;5184;51.376;7.148;2022-08-19T03:58:16;14.57;;;13.20;;
10277;SDS011;5184;51.376;7.148;2022-08-19T04:00:43;15.30;;;13.77;;
10277;SDS011;5184;51.376;7.148;2022-08-19T04:03:10;16.27;;;14.37;;
10277;SDS011;5184;51.376;7.148;2022-08-19T04:05:36;15.20;;;13.80;;
10277;SDS011;5184;51.376;7.148;2022-08-19T04:08:03;14.80;;;13.40;;
10277;SDS011;5184;51.376;7.148;2022-08-19T04:10:30;15.97;;;14.33;;
10277;SDS011;5184;51.376;7.148;2022-08-19T04:12:57;14.00;;;12.60;;
10277;SDS011;5184;51.376;7.148;2022-08-19T04:15:24;13.73;;;12.47;;
10277;SDS011;5184;51.376;7.148;2022-08-19T04:17:51;14.53;;;13.23;;
10277;SDS011;5184;51.376;7.148;2022-08-19T04:20:17;14.40;;;13.07;;
10277;SDS011;5184;51.376;7.148;2022-08-19T04:22:44;14.53;;;13.03;;
10277;SDS011;5184;51.376;7.148;2022-08-19T04:25:11;13.97;;;12.67;;
10277;SDS011;5184;51.376;7.148;2022-08-19T04:27:37;15.17;;;13.83;;
10277;SDS011;5184;51.376;7.148;2022-08-19T04:30:04;14.20;;;12.80;;
10277;SDS011;5184;51.376;7.148;2022-08-19T04:32:31;14.37;;;13.10;;
10277;SDS011;5184;51.376;7.148;2022-08-19T04:34:57;14.83;;;13.43;;
10277;SDS011;5184;51.376;7.148;2022-08-19T04:37:25;14.80;;;13.50;;
10277;SDS011;5184;51.376;7.148;2022-08-19T04:39:51;14.10;;;12.90;;
10277;SDS011;5184;51.376;7.148;2022-08-19T04:42:24;13.40;;;12.10;;
10277;SDS011;5184;51.376;7.148;2022-08-19T04:44:56;13.07;;;11.87;;
10277;SDS011;5184;51.376;7.148;2022-08-19T04:47:23;13.27;;;12.07;;
10277;SDS011;5184;51.376;7.148;2022-08-19T04:49:50;15.23;;;12.60;;
10277;SDS011;5184;51.376;7.148;2022-08-19T04:52:17;12.97;;;11.77;;
10277;SDS011;5184;51.376;7.148;2022-08-19T04:54:45;13.37;;;12.07;;
10277;SDS011;5184;51.376;7.148;2022-08-19T04:57:11;12.83;;;11.63;;
10277;SDS011;5184;51.376;7.148;2022-08-19T04:59:38;13.33;;;12.03;;
10277;SDS011;5184;51.376;7.148;2022-08-19T05:02:06;13.50;;;12.17;;
10277;SDS011;5184;51.376;7.148;2022-08-19T05:04:31;14.50;;;13.17;;
10277;SDS011;5184;51.376;7.148;2022-08-19T05:06:58;13.43;;;12.13;;
10277;SDS011;5184;51.376;7.148;2022-08-19T05:09:25;13.83;;;12.47;;
10277;SDS011;5184;51.376;7.148;2022-08-19T05:11:52;13.83;;;12.43;;
10277;SDS011;5184;51.376;7.148;2022-08-19T05:14:19;14.87;;;13.37;;
10277;SDS011;5184;51.376;7.148;2022-08-19T05:16:46;14.00;;;12.57;;
10277;SDS011;5184;51.376;7.148;2022-08-19T05:19:12;13.17;;;11.83;;
10277;SDS011;5184;51.376;7.148;2022-08-19T05:21:44;13.63;;;12.43;;
10277;SDS011;5184;51.376;7.148;2022-08-19T05:24:17;13.83;;;12.43;;
10277;SDS011;5184;51.376;7.148;2022-08-19T05:26:45;13.23;;;12.03;;
10277;SDS011;5184;51.376;7.148;2022-08-19T05:29:12;12.77;;;11.40;;
10277;SDS011;5184;51.376;7.148;2022-08-19T05:31:38;14.20;;;12.90;;
10277;SDS011;5184;51.376;7.148;2022-08-19T05:34:05;14.43;;;13.00;;
10277;SDS011;5184;51.376;7.148;2022-08-19T05:36:37;14.20;;;12.90;;
10277;SDS011;5184;51.376;7.148;2022-08-19T05:39:02;14.20;;;12.70;;
10277;SDS011;5184;51.376;7.148;2022-08-19T05:41:28;13.17;;;11.90;;
10277;SDS011;5184;51.376;7.148;2022-08-19T05:43:56;15.03;;;13.63;;
10277;SDS011;5184;51.376;7.148;2022-08-19T05:46:22;15.40;;;13.93;;
10277;SDS011;5184;51.376;7.148;2022-08-19T05:48:49;16.07;;;14.57;;
10277;SDS011;5184;51.376;7.148;2022-08-19T05:51:16;17.27;;;15.57;;
10277;SDS011;5184;51.376;7.148;2022-08-19T05:53:42;19.07;;;17.17;;
10277;SDS011;5184;51.376;7.148;2022-08-19T05:56:11;17.43;;;15.73;;
10277;SDS011;5184;51.376;7.148;2022-08-19T05:58:37;17.37;;;15.57;;
10277;SDS011;5184;51.376;7.148;2022-08-19T06:01:04;18.27;;;16.37;;
10277;SDS011;5184;51.376;7.148;2022-08-19T06:03:31;17.47;;;15.53;;
10277;SDS011;5184;51.376;7.148;2022-08-19T06:05:57;20.00;;;18.03;;
10277;SDS011;5184;51.376;7.148;2022-08-19T06:08:26;20.40;;;18.33;;
10277;SDS011;5184;51.376;7.148;2022-08-19T06:10:54;20.43;;;18.40;;
10277;SDS011;5184;51.376;7.148;2022-08-19T06:13:20;19.63;;;17.60;;
10277;SDS011;5184;51.376;7.148;2022-08-19T06:15:47;20.57;;;17.33;;
10277;SDS011;5184;51.376;7.148;2022-08-19T06:18:14;18.17;;;16.30;;
10277;SDS011;5184;51.376;7.148;2022-08-19T06:20:41;19.77;;;17.60;;
10277;SDS011;5184;51.376;7.148;2022-08-19T06:23:09;19.73;;;17.27;;
10277;SDS011;5184;51.376;7.148;2022-08-19T06:25:35;21.40;;;19.10;;
10277;SDS011;5184;51.376;7.148;2022-08-19T06:28:01;20.53;;;18.47;;
10277;SDS011;5184;51.376;7.148;2022-08-19T06:30:28;19.97;;;17.80;;
10277;SDS011;5184;51.376;7.148;2022-08-19T06:32:56;19.73;;;17.70;;
10277;SDS011;5184;51.376;7.148;2022-08-19T06:35:23;19.93;;;17.83;;
10277;SDS011;5184;51.376;7.148;2022-08-19T06:37:50;22.63;;;18.00;;
10277;SDS011;5184;51.376;7.148;2022-08-19T06:40:16;24.13;;;18.27;;
10277;SDS011;5184;51.376;7.148;2022-08-19T06:42:43;23.40;;;18.63;;
10277;SDS011;5184;51.376;7.148;2022-08-19T06:45:10;22.50;;;20.30;;
10277;SDS011;5184;51.376;7.148;2022-08-19T06:47:37;21.77;;;19.50;;
10277;SDS011;5184;51.376;7.148;2022-08-19T06:50:05;25.53;;;21.00;;
10277;SDS011;5184;51.376;7.148;2022-08-19T06:52:32;21.90;;;19.60;;
10277;SDS011;5184;51.376;7.148;2022-08-19T06:54:58;23.73;;;19.67;;
10277;SDS011;5184;51.376;7.148;2022-08-19T06:57:25;24.60;;;19.03;;
10277;SDS011;5184;51.376;7.148;2022-08-19T06:59:52;21.80;;;19.50;;
10277;SDS011;5184;51.376;7.148;2022-08-19T07:02:19;26.30;;;19.53;;
10277;SDS011;5184;51.376;7.148;2022-08-19T07:04:45;21.37;;;18.87;;
10277;SDS011;5184;51.376;7.148;2022-08-19T07:07:13;21.63;;;19.40;;
10277;SDS011;5184;51.376;7.148;2022-08-19T07:09:40;22.00;;;19.73;;
10277;SDS011;5184;51.376;7.148;2022-08-19T07:12:07;21.97;;;19.77;;
10277;SDS011;5184;51.376;7.148;2022-08-19T07:14:33;22.10;;;18.73;;
10277;SDS011;5184;51.376;7.148;2022-08-19T07:17:03;19.10;;;17.27;;
10277;SDS011;5184;51.376;7.148;2022-08-19T07:19:30;21.17;;;17.87;;
10277;SDS011;5184;51.376;7.148;2022-08-19T07:21:56;20.57;;;18.37;;
10277;SDS011;5184;51.376;7.148;2022-08-19T07:24:23;20.13;;;18.10;;
10277;SDS011;5184;51.376;7.148;2022-08-19T07:26:50;20.13;;;17.70;;
10277;SDS011;5184;51.376;7.148;2022-08-19T07:29:16;20.10;;;17.17;;
10277;SDS011;5184;51.376;7.148;2022-08-19T07:31:43;18.77;;;16.77;;
10277;SDS011;5184;51.376;7.148;2022-08-19T07:34:10;18.27;;;16.37;;
10277;SDS011;5184;51.376;7.148;2022-08-19T07:36:37;18.83;;;16.93;;
10277;SDS011;5184;51.376;7.148;2022-08-19T07:39:05;20.87;;;17.87;;
10277;SDS011;5184;51.376;7.148;2022-08-19T07:41:29;19.23;;;17.23;;
10277;SDS011;5184;51.376;7.148;2022-08-19T07:43:56;19.27;;;16.50;;
10277;SDS011;5184;51.376;7.148;2022-08-19T07:46:23;20.43;;;18.27;;
10277;SDS011;5184;51.376;7.148;2022-08-19T07:48:51;18.80;;;16.87;;
10277;SDS011;5184;51.376;7.148;2022-08-19T07:51:17;19.17;;;17.20;;
10277;SDS011;5184;51.376;7.148;2022-08-19T07:53:43;19.80;;;17.80;;
10277;SDS011;5184;51.376;7.148;2022-08-19T07:56:11;17.90;;;16.10;;
10277;SDS011;5184;51.376;7.148;2022-08-19T07:58:39;19.57;;;17.57;;
10277;SDS011;5184;51.376;7.148;2022-08-19T08:01:05;19.77;;;17.73;;
10277;SDS011;5184;51.376;7.148;2022-08-19T08:03:31;19.67;;;17.53;;
10277;SDS011;5184;51.376;7.148;2022-08-19T08:06:04;21.23;;;19.10;;
10277;SDS011;5184;51.376;7.148;2022-08-19T08:08:36;25.73;;;22.53;;
10277;SDS011;5184;51.376;7.148;2022-08-19T08:11:09;22.83;;;20.40;;
10277;SDS011;5184;51.376;7.148;2022-08-19T08:13:37;23.00;;;20.60;;
10277;SDS011;5184;51.376;7.148;2022-08-19T08:16:03;27.20;;;24.50;;
10277;SDS011;5184;51.376;7.148;2022-08-19T08:18:30;26.17;;;23.37;;
10277;SDS011;5184;51.376;7.148;2022-08-19T08:20:57;28.30;;;25.27;;
10277;SDS011;5184;51.376;7.148;2022-08-19T08:23:25;26.40;;;23.70;;
10277;SDS011;5184;51.376;7.148;2022-08-19T08:25:53;28.13;;;25.07;;
10277;SDS011;5184;51.376;7.148;2022-08-19T08:28:19;27.00;;;24.10;;
10277;SDS011;5184;51.376;7.148;2022-08-19T08:30:46;27.50;;;24.63;;
10277;SDS011;5184;51.376;7.148;2022-08-19T08:33:12;26.03;;;23.23;;
10277;SDS011;5184;51.376;7.148;2022-08-19T08:35:40;26.23;;;23.53;;
10277;SDS011;5184;51.376;7.148;2022-08-19T08:38:06;26.80;;;23.93;;
10277;SDS011;5184;51.376;7.148;2022-08-19T08:40:38;26.97;;;24.17;;
10277;SDS011;5184;51.376;7.148;2022-08-19T08:43:05;27.60;;;24.63;;
10277;SDS011;5184;51.376;7.148;2022-08-19T08:45:30;28.83;;;25.93;;
10277;SDS011;5184;51.376;7.148;2022-08-19T08:47:57;29.90;;;26.90;;
10277;SDS011;5184;51.376;7.148;2022-08-19T08:50:25;30.17;;;26.97;;
10277;SDS011;5184;51.376;7.148;2022-08-19T08:52:52;31.17;;;27.83;;
10277;SDS011;5184;51.376;7.148;2022-08-19T08:55:19;32.60;;;27.00;;
10277;SDS011;5184;51.376;7.148;2022-08-19T08:57:56;32.97;;;29.13;;
10277;SDS011;5184;51.376;7.148;2022-08-19T09:00:27;30.75;;;27.65;;
10277;SDS011;5184;51.376;7.148;2022-08-19T09:02:54;33.83;;;30.13;;
10277;SDS011;5184;51.376;7.148;2022-08-19T09:05:20;32.83;;;29.40;;
10277;SDS011;5184;51.376;7.148;2022-08-19T09:07:59;34.20;;;30.83;;
10277;SDS011;5184;51.376;7.148;2022-08-19T09:10:32;30.70;;;27.47;;
10277;SDS011;5184;51.376;7.148;2022-08-19T09:13:04;27.77;;;24.90;;
10277;SDS011;5184;51.376;7.148;2022-08-19T09:15:30;33.73;;;30.30;;
10277;SDS011;5184;51.376;7.148;2022-08-19T09:17:58;32.87;;;29.57;;
10277;SDS011;5184;51.376;7.148;2022-08-19T09:20:23;33.90;;;30.37;;
10277;SDS011;5184;51.376;7.148;2022-08-19T09:22:49;33.00;;;29.87;;
10277;SDS011;5184;51.376;7.148;2022-08-19T09:25:18;30.63;;;27.73;;
10277;SDS011;5184;51.376;7.148;2022-08-19T09:27:44;31.40;;;28.27;;
10277;SDS011;5184;51.376;7.148;2022-08-19T09:30:12;32.13;;;28.97;;
10277;SDS011;5184;51.376;7.148;2022-08-19T09:32:37;33.70;;;30.40;;
10277;SDS011;5184;51.376;7.148;2022-08-19T09:35:04;31.57;;;28.17;;
10277;SDS011;5184;51.376;7.148;2022-08-19T09:37:30;29.53;;;26.53;;
10277;SDS011;5184;51.376;7.148;2022-08-19T09:39:57;28.43;;;25.73;;
10277;SDS011;5184;51.376;7.148;2022-08-19T09:42:24;29.17;;;25.93;;
10277;SDS011;5184;51.376;7.148;2022-08-19T09:44:50;28.70;;;25.70;;
10277;SDS011;5184;51.376;7.148;2022-08-19T09:47:18;26.50;;;22.93;;
10277;SDS011;5184;51.376;7.148;2022-08-19T09:49:44;26.10;;;23.50;;
10277;SDS011;5184;51.376;7.148;2022-08-19T09:52:11;23.97;;;21.67;;
10277;SDS011;5184;51.376;7.148;2022-08-19T09:54:38;21.47;;;19.27;;
10277;SDS011;5184;51.376;7.148;2022-08-19T09:57:04;21.93;;;19.83;;
10277;SDS011;5184;51.376;7.148;2022-08-19T09:59:31;23.50;;;21.40;;
10277;SDS011;5184;51.376;7.148;2022-08-19T10:01:57;22.77;;;20.40;;
10277;SDS011;5184;51.376;7.148;2022-08-19T10:04:24;21.43;;;19.37;;
10277;SDS011;5184;51.376;7.148;2022-08-19T10:06:50;23.47;;;21.10;;
10277;SDS011;5184;51.376;7.148;2022-08-19T10:09:17;20.20;;;18.10;;
10277;SDS011;5184;51.376;7.148;2022-08-19T10:11:44;21.33;;;19.30;;
10277;SDS011;5184;51.376;7.148;2022-08-19T10:14:11;20.83;;;18.77;;
10277;SDS011;5184;51.376;7.148;2022-08-19T10:16:38;18.87;;;16.97;;
10277;SDS011;5184;51.376;7.148;2022-08-19T10:19:05;16.37;;;14.83;;
10277;SDS011;5184;51.376;7.148;2022-08-19T10:21:33;17.33;;;15.63;;
10277;SDS011;5184;51.376;7.148;2022-08-19T10:24:00;17.97;;;16.17;;
10277;SDS011;5184;51.376;7.148;2022-08-19T10:26:27;18.23;;;16.53;;
10277;SDS011;5184;51.376;7.148;2022-08-19T10:28:53;19.13;;;17.33;;
10277;SDS011;5184;51.376;7.148;2022-08-19T10:31:21;20.40;;;18.37;;
10277;SDS011;5184;51.376;7.148;2022-08-19T10:33:47;17.50;;;15.70;;
10277;SDS011;5184;51.376;7.148;2022-08-19T10:36:16;20.00;;;17.90;;
10277;SDS011;5184;51.376;7.148;2022-08-19T10:38:40;18.40;;;15.93;;
10277;SDS011;5184;51.376;7.148;2022-08-19T10:41:08;17.33;;;15.80;;
10277;SDS011;5184;51.376;7.148;2022-08-19T10:43:37;19.80;;;17.80;;
10277;SDS011;5184;51.376;7.148;2022-08-19T10:46:04;17.03;;;15.40;;
10277;SDS011;5184;51.376;7.148;2022-08-19T10:48:31;19.23;;;17.43;;
10277;SDS011;5184;51.376;7.148;2022-08-19T10:50:57;18.67;;;16.93;;
10277;SDS011;5184;51.376;7.148;2022-08-19T10:53:29;18.70;;;16.70;;
10277;SDS011;5184;51.376;7.148;2022-08-19T10:55:56;21.83;;;19.53;;
10277;SDS011;5184;51.376;7.148;2022-08-19T10:58:28;23.20;;;20.90;;
10277;SDS011;5184;51.376;7.148;2022-08-19T11:00:56;21.37;;;19.43;;
10277;SDS011;5184;51.376;7.148;2022-08-19T11:03:22;20.47;;;18.50;;
10277;SDS011;5184;51.376;7.148;2022-08-19T11:06:00;21.80;;;19.70;;
10277;SDS011;5184;51.376;7.148;2022-08-19T11:08:26;19.57;;;17.60;;
10277;SDS011;5184;51.376;7.148;2022-08-19T11:10:54;21.03;;;18.97;;
10277;SDS011;5184;51.376;7.148;2022-08-19T11:13:20;21.27;;;19.23;;
10277;SDS011;5184;51.376;7.148;2022-08-19T11:15:47;18.70;;;16.90;;
10277;SDS011;5184;51.376;7.148;2022-08-19T11:18:13;20.53;;;18.57;;
10277;SDS011;5184;51.376;7.148;2022-08-19T11:20:40;20.93;;;18.83;;
10277;SDS011;5184;51.376;7.148;2022-08-19T11:23:07;19.73;;;17.93;;
10277;SDS011;5184;51.376;7.148;2022-08-19T11:25:33;20.20;;;18.30;;
10277;SDS011;5184;51.376;7.148;2022-08-19T11:28:00;17.53;;;15.87;;
10277;SDS011;5184;51.376;7.148;2022-08-19T11:30:26;20.60;;;18.40;;
10277;SDS011;5184;51.376;7.148;2022-08-19T11:32:54;20.00;;;18.10;;
10277;SDS011;5184;51.376;7.148;2022-08-19T11:35:20;19.10;;;17.30;;
10277;SDS011;5184;51.376;7.148;2022-08-19T11:37:47;20.43;;;18.50;;
10277;SDS011;5184;51.376;7.148;2022-08-19T11:40:14;20.20;;;18.13;;
10277;SDS011;5184;51.376;7.148;2022-08-19T11:42:40;24.60;;;22.33;;
10277;SDS011;5184;51.376;7.148;2022-08-19T11:45:13;22.70;;;20.53;;
10277;SDS011;5184;51.376;7.148;2022-08-19T11:47:39;19.90;;;17.70;;
10277;SDS011;5184;51.376;7.148;2022-08-19T11:50:06;21.30;;;19.40;;
10277;SDS011;5184;51.376;7.148;2022-08-19T11:52:33;22.47;;;20.53;;
10277;SDS011;5184;51.376;7.148;2022-08-19T11:54:59;23.10;;;20.93;;
10277;SDS011;5184;51.376;7.148;2022-08-19T11:57:27;20.10;;;18.30;;
10277;SDS011;5184;51.376;7.148;2022-08-19T11:59:53;19.47;;;17.57;;
10277;SDS011;5184;51.376;7.148;2022-08-19T12:02:20;18.17;;;16.47;;
10277;SDS011;5184;51.376;7.148;2022-08-19T12:04:46;18.27;;;16.57;;
10277;SDS011;5184;51.376;7.148;2022-08-19T12:07:13;18.70;;;16.80;;
10277;SDS011;5184;51.376;7.148;2022-08-19T12:09:40;19.40;;;17.60;;
10277;SDS011;5184;51.376;7.148;2022-08-19T12:12:07;18.20;;;16.30;;
10277;SDS011;5184;51.376;7.148;2022-08-19T12:14:34;16.47;;;14.93;;
10277;SDS011;5184;51.376;7.148;2022-08-19T12:17:01;16.97;;;15.37;;
10277;SDS011;5184;51.376;7.148;2022-08-19T12:19:28;15.93;;;14.37;;
10277;SDS011;5184;51.376;7.148;2022-08-19T12:21:58;16.67;;;15.13;;
10277;SDS011;5184;51.376;7.148;2022-08-19T12:24:21;14.53;;;13.03;;
10277;SDS011;5184;51.376;7.148;2022-08-19T12:26:48;15.80;;;14.30;;
10277;SDS011;5184;51.376;7.148;2022-08-19T12:29:15;13.40;;;12.20;;
10277;SDS011;5184;51.376;7.148;2022-08-19T12:31:41;12.90;;;11.80;;
10277;SDS011;5184;51.376;7.148;2022-08-19T12:34:08;11.37;;;10.30;;
10277;SDS011;5184;51.376;7.148;2022-08-19T12:36:35;11.60;;;10.53;;
10277;SDS011;5184;51.376;7.148;2022-08-19T12:39:01;11.80;;;10.77;;
10277;SDS011;5184;51.376;7.148;2022-08-19T12:41:28;10.93;;;9.93;;
10277;SDS011;5184;51.376;7.148;2022-08-19T12:43:54;9.80;;;8.97;;
10277;SDS011;5184;51.376;7.148;2022-08-19T12:46:21;11.60;;;10.00;;
10277;SDS011;5184;51.376;7.148;2022-08-19T12:48:48;10.57;;;9.57;;
10277;SDS011;5184;51.376;7.148;2022-08-19T12:51:16;10.00;;;9.10;;
10277;SDS011;5184;51.376;7.148;2022-08-19T12:53:41;9.23;;;8.37;;
10277;SDS011;5184;51.376;7.148;2022-08-19T12:56:10;10.00;;;9.00;;
10277;SDS011;5184;51.376;7.148;2022-08-19T12:58:35;8.30;;;7.50;;
10277;SDS011;5184;51.376;7.148;2022-08-19T13:01:07;9.20;;;8.40;;
10277;SDS011;5184;51.376;7.148;2022-08-19T13:03:34;9.77;;;8.97;;
10277;SDS011;5184;51.376;7.148;2022-08-19T13:06:01;9.37;;;8.60;;
10277;SDS011;5184;51.376;7.148;2022-08-19T13:08:28;9.07;;;8.17;;
10277;SDS011;5184;51.376;7.148;2022-08-19T13:11:11;9.57;;;8.13;;
10277;SDS011;5184;51.376;7.148;2022-08-19T13:13:37;9.50;;;8.57;;
10277;SDS011;5184;51.376;7.148;2022-08-19T13:16:04;9.33;;;8.43;;
10277;SDS011;5184;51.376;7.148;2022-08-19T13:18:31;9.67;;;8.87;;
10277;SDS011;5184;51.376;7.148;2022-08-19T13:21:01;10.00;;;9.10;;
10277;SDS011;5184;51.376;7.148;2022-08-19T13:23:24;10.20;;;9.03;;
10277;SDS011;5184;51.376;7.148;2022-08-19T13:25:56;9.00;;;8.10;;
10277;SDS011;5184;51.376;7.148;2022-08-19T13:28:22;9.13;;;8.23;;
10277;SDS011;5184;51.376;7.148;2022-08-19T13:30:48;8.77;;;8.07;;
10277;SDS011;5184;51.376;7.148;2022-08-19T13:33:21;9.20;;;8.40;;
10277;SDS011;5184;51.376;7.148;2022-08-19T13:35:50;10.70;;;8.37;;
10277;SDS011;5184;51.376;7.148;2022-08-19T13:38:17;8.20;;;7.47;;
10277;SDS011;5184;51.376;7.148;2022-08-19T13:40:42;8.10;;;7.40;;
10277;SDS011;5184;51.376;7.148;2022-08-19T13:43:09;7.20;;;6.50;;
10277;SDS011;5184;51.376;7.148;2022-08-19T13:45:35;7.87;;;7.10;;
10277;SDS011;5184;51.376;7.148;2022-08-19T13:48:04;9.03;;;7.57;;
10277;SDS011;5184;51.376;7.148;2022-08-19T13:50:30;7.57;;;6.33;;
10277;SDS011;5184;51.376;7.148;2022-08-19T13:52:57;8.77;;;7.93;;
10277;SDS011;5184;51.376;7.148;2022-08-19T13:55:25;9.07;;;8.10;;
10277;SDS011;5184;51.376;7.148;2022-08-19T13:57:53;8.60;;;7.70;;
10277;SDS011;5184;51.376;7.148;2022-08-19T14:00:20;8.50;;;7.70;;
10277;SDS011;5184;51.376;7.148;2022-08-19T14:02:46;10.90;;;7.30;;
10277;SDS011;5184;51.376;7.148;2022-08-19T14:05:14;7.90;;;6.63;;
10277;SDS011;5184;51.376;7.148;2022-08-19T14:07:39;7.60;;;6.80;;
10277;SDS011;5184;51.376;7.148;2022-08-19T14:10:06;7.33;;;6.73;;
10277;SDS011;5184;51.376;7.148;2022-08-19T14:12:34;7.70;;;6.60;;
10277;SDS011;5184;51.376;7.148;2022-08-19T14:15:01;7.80;;;6.40;;
10277;SDS011;5184;51.376;7.148;2022-08-19T14:17:28;6.73;;;6.03;;
10277;SDS011;5184;51.376;7.148;2022-08-19T14:19:59;6.77;;;6.07;;
10277;SDS011;5184;51.376;7.148;2022-08-19T14:22:25;11.10;;;6.43;;
10277;SDS011;5184;51.376;7.148;2022-08-19T14:24:51;7.20;;;6.50;;
10277;SDS011;5184;51.376;7.148;2022-08-19T14:27:18;7.73;;;5.70;;
10277;SDS011;5184;51.376;7.148;2022-08-19T14:29:46;6.40;;;5.77;;
10277;SDS011;5184;51.376;7.148;2022-08-19T14:32:13;6.03;;;5.40;;
10277;SDS011;5184;51.376;7.148;2022-08-19T14:34:40;7.13;;;6.00;;
10277;SDS011;5184;51.376;7.148;2022-08-19T14:37:07;5.47;;;4.97;;